sensor_id;sensor_type;location;lat;lon;timestamp;pressure;altitude;pressure_sealevel;temperature;humidity
36600;BME280;35385;55.668;37.508;2023-05-23T00:00:49;99679.84;;;15.04;100.00
36600;BME280;35385;55.668;37.508;2023-05-23T00:01:51;99680.69;;;15.05;100.00
36600;BME280;35385;55.668;37.508;2023-05-23T00:02:53;99676.47;;;15.02;100.00
36600;BME280;35385;55.668;37.508;2023-05-23T00:03:54;99676.81;;;14.99;100.00
36600;BME280;35385;55.668;37.508;2023-05-23T00:04:55;99673.13;;;15.00;100.00
36600;BME280;35385;55.668;37.508;2023-05-23T00:05:57;99669.41;;;15.01;100.00
36600;BME280;35385;55.668;37.508;2023-05-23T00:06:58;99679.31;;;15.01;100.00
36600;BME280;35385;55.668;37.508;2023-05-23T00:07:59;99672.09;;;15.01;100.00
36600;BME280;35385;55.668;37.508;2023-05-23T00:09:00;99671.44;;;14.99;100.00
36600;BME280;35385;55.668;37.508;2023-05-23T00:10:00;99677.94;;;14.97;100.00
36600;BME280;35385;55.668;37.508;2023-05-23T00:11:01;99677.41;;;14.93;100.00
36600;BME280;35385;55.668;37.508;2023-05-23T00:12:01;99679.41;;;14.91;100.00
36600;BME280;35385;55.668;37.508;2023-05-23T00:13:02;99673.47;;;14.88;100.00
36600;BME280;35385;55.668;37.508;2023-05-23T00:14:02;99678.63;;;14.81;100.00
36600;BME280;35385;55.668;37.508;2023-05-23T00:15:03;99683.00;;;14.64;100.00
36600;BME280;35385;55.668;37.508;2023-05-23T00:16:04;99684.84;;;14.64;100.00
36600;BME280;35385;55.668;37.508;2023-05-23T00:17:08;99684.41;;;14.68;100.00
36600;BME280;35385;55.668;37.508;2023-05-23T00:18:09;99687.59;;;14.72;100.00
36600;BME280;35385;55.668;37.508;2023-05-23T00:19:11;99684.41;;;14.68;100.00
36600;BME280;35385;55.668;37.508;2023-05-23T00:20:13;99681.47;;;14.79;100.00
36600;BME280;35385;55.668;37.508;2023-05-23T00:21:15;99676.31;;;14.86;100.00
36600;BME280;35385;55.668;37.508;2023-05-23T00:22:17;99677.56;;;14.92;100.00
36600;BME280;35385;55.668;37.508;2023-05-23T00:23:17;99683.47;;;14.95;100.00
36600;BME280;35385;55.668;37.508;2023-05-23T00:24:19;99689.47;;;14.89;100.00
36600;BME280;35385;55.668;37.508;2023-05-23T00:25:20;99682.09;;;14.91;100.00
36600;BME280;35385;55.668;37.508;2023-05-23T00:26:21;99679.94;;;14.95;100.00
36600;BME280;35385;55.668;37.508;2023-05-23T00:27:23;99674.28;;;14.98;100.00
36600;BME280;35385;55.668;37.508;2023-05-23T00:28:23;99680.50;;;14.98;100.00
36600;BME280;35385;55.668;37.508;2023-05-23T00:29:24;99675.97;;;14.99;100.00
36600;BME280;35385;55.668;37.508;2023-05-23T00:30:25;99677.25;;;14.95;100.00
36600;BME280;35385;55.668;37.508;2023-05-23T00:31:26;99671.47;;;14.90;100.00
36600;BME280;35385;55.668;37.508;2023-05-23T00:32:26;99674.16;;;14.90;100.00
36600;BME280;35385;55.668;37.508;2023-05-23T00:33:26;99680.69;;;14.87;100.00
36600;BME280;35385;55.668;37.508;2023-05-23T00:34:28;99682.03;;;14.83;100.00
36600;BME280;35385;55.668;37.508;2023-05-23T00:35:29;99682.91;;;14.74;100.00
36600;BME280;35385;55.668;37.508;2023-05-23T00:36:29;99687.31;;;14.75;100.00
36600;BME280;35385;55.668;37.508;2023-05-23T00:37:30;99681.34;;;14.81;100.00
36600;BME280;35385;55.668;37.508;2023-05-23T00:38:31;99673.63;;;14.86;100.00
36600;BME280;35385;55.668;37.508;2023-05-23T00:39:32;99671.47;;;14.90;100.00
36600;BME280;35385;55.668;37.508;2023-05-23T00:40:33;99674.88;;;14.92;100.00
36600;BME280;35385;55.668;37.508;2023-05-23T00:41:34;99670.34;;;14.92;100.00
36600;BME280;35385;55.668;37.508;2023-05-23T00:42:35;99682.94;;;14.92;100.00
36600;BME280;35385;55.668;37.508;2023-05-23T00:43:35;99669.50;;;14.92;100.00
36600;BME280;35385;55.668;37.508;2023-05-23T00:44:36;99672.03;;;14.93;100.00
36600;BME280;35385;55.668;37.508;2023-05-23T00:45:36;99674.72;;;14.93;100.00
36600;BME280;35385;55.668;37.508;2023-05-23T00:46:36;99672.13;;;14.83;100.00
36600;BME280;35385;55.668;37.508;2023-05-23T00:47:38;99669.56;;;14.82;100.00
36600;BME280;35385;55.668;37.508;2023-05-23T00:48:38;99680.09;;;14.75;100.00
36600;BME280;35385;55.668;37.508;2023-05-23T00:49:39;99679.53;;;14.72;100.00
36600;BME280;35385;55.668;37.508;2023-05-23T00:50:40;99682.63;;;14.77;100.00
36600;BME280;35385;55.668;37.508;2023-05-23T00:51:40;99673.25;;;14.81;100.00
36600;BME280;35385;55.668;37.508;2023-05-23T00:52:43;99672.97;;;14.84;100.00
36600;BME280;35385;55.668;37.508;2023-05-23T00:53:44;99672.31;;;14.90;100.00
36600;BME280;35385;55.668;37.508;2023-05-23T00:54:44;99674.03;;;14.91;100.00
36600;BME280;35385;55.668;37.508;2023-05-23T00:55:45;99674.56;;;14.95;100.00
36600;BME280;35385;55.668;37.508;2023-05-23T00:56:45;99675.56;;;14.94;100.00
36600;BME280;35385;55.668;37.508;2023-05-23T00:57:47;99680.25;;;14.92;100.00
36600;BME280;35385;55.668;37.508;2023-05-23T00:58:47;99671.97;;;14.85;100.00
36600;BME280;35385;55.668;37.508;2023-05-23T00:59:48;99675.56;;;14.76;100.00
36600;BME280;35385;55.668;37.508;2023-05-23T01:00:48;99674.09;;;14.64;100.00
36600;BME280;35385;55.668;37.508;2023-05-23T01:01:49;99683.59;;;14.58;100.00
36600;BME280;35385;55.668;37.508;2023-05-23T01:02:50;99677.38;;;14.58;100.00
36600;BME280;35385;55.668;37.508;2023-05-23T01:03:51;99677.06;;;14.61;100.00
36600;BME280;35385;55.668;37.508;2023-05-23T01:04:51;99679.72;;;14.70;100.00
36600;BME280;35385;55.668;37.508;2023-05-23T01:05:54;99674.16;;;14.72;100.00
36600;BME280;35385;55.668;37.508;2023-05-23T01:06:55;99671.47;;;14.72;100.00
36600;BME280;35385;55.668;37.508;2023-05-23T01:07:55;99668.31;;;14.59;100.00
36600;BME280;35385;55.668;37.508;2023-05-23T01:08:56;99667.47;;;14.58;100.00
36600;BME280;35385;55.668;37.508;2023-05-23T01:09:56;99667.88;;;14.63;100.00
36600;BME280;35385;55.668;37.508;2023-05-23T01:10:58;99660.94;;;14.61;100.00
36600;BME280;35385;55.668;37.508;2023-05-23T01:12:19;99658.56;;;14.58;100.00
36600;BME280;35385;55.668;37.508;2023-05-23T01:13:36;99669.72;;;14.63;100.00
36600;BME280;35385;55.668;37.508;2023-05-23T01:14:50;99662.94;;;14.59;100.00
36600;BME280;35385;55.668;37.508;2023-05-23T01:16:01;99667.94;;;14.54;100.00
36600;BME280;35385;55.668;37.508;2023-05-23T01:17:08;99671.00;;;14.59;100.00
36600;BME280;35385;55.668;37.508;2023-05-23T01:18:18;99666.72;;;14.66;100.00
36600;BME280;35385;55.668;37.508;2023-05-23T01:20:28;99672.84;;;14.58;100.00
36600;BME280;35385;55.668;37.508;2023-05-23T01:21:30;99662.03;;;14.68;100.00
36600;BME280;35385;55.668;37.508;2023-05-23T01:23:37;99656.28;;;14.80;100.00
36600;BME280;35385;55.668;37.508;2023-05-23T01:24:49;99657.13;;;14.81;100.00
36600;BME280;35385;55.668;37.508;2023-05-23T01:26:06;99660.56;;;14.73;100.00
36600;BME280;35385;55.668;37.508;2023-05-23T01:27:17;99655.88;;;14.75;100.00
36600;BME280;35385;55.668;37.508;2023-05-23T01:28:22;99654.69;;;14.70;100.00
36600;BME280;35385;55.668;37.508;2023-05-23T01:29:37;99663.88;;;14.67;100.00
36600;BME280;35385;55.668;37.508;2023-05-23T01:30:39;99660.34;;;14.67;100.00
36600;BME280;35385;55.668;37.508;2023-05-23T01:31:43;99654.88;;;14.59;100.00
36600;BME280;35385;55.668;37.508;2023-05-23T01:32:46;99655.41;;;14.44;100.00
36600;BME280;35385;55.668;37.508;2023-05-23T01:33:47;99658.78;;;14.46;100.00
36600;BME280;35385;55.668;37.508;2023-05-23T01:34:49;99659.03;;;14.53;100.00
36600;BME280;35385;55.668;37.508;2023-05-23T01:35:52;99648.75;;;14.66;100.00
36600;BME280;35385;55.668;37.508;2023-05-23T01:36:53;99654.34;;;14.73;100.00
36600;BME280;35385;55.668;37.508;2023-05-23T01:37:54;99652.66;;;14.72;100.00
36600;BME280;35385;55.668;37.508;2023-05-23T01:38:55;99658.03;;;14.72;100.00
36600;BME280;35385;55.668;37.508;2023-05-23T01:39:55;99665.94;;;14.73;100.00
36600;BME280;35385;55.668;37.508;2023-05-23T01:40:55;99669.16;;;14.59;100.00
36600;BME280;35385;55.668;37.508;2023-05-23T01:41:56;99664.88;;;14.66;100.00
36600;BME280;35385;55.668;37.508;2023-05-23T01:42:56;99667.97;;;14.71;100.00
36600;BME280;35385;55.668;37.508;2023-05-23T01:43:57;99667.97;;;14.71;100.00
36600;BME280;35385;55.668;37.508;2023-05-23T01:44:57;99661.50;;;14.64;100.00
36600;BME280;35385;55.668;37.508;2023-05-23T01:45:58;99664.03;;;14.66;100.00
36600;BME280;35385;55.668;37.508;2023-05-23T01:47:00;99659.28;;;14.77;100.00
36600;BME280;35385;55.668;37.508;2023-05-23T01:48:02;99659.19;;;14.87;100.00
36600;BME280;35385;55.668;37.508;2023-05-23T01:49:03;99661.56;;;14.90;100.00
36600;BME280;35385;55.668;37.508;2023-05-23T01:50:04;99660.44;;;14.93;100.00
36600;BME280;35385;55.668;37.508;2023-05-23T01:51:05;99652.91;;;14.96;100.00
36600;BME280;35385;55.668;37.508;2023-05-23T01:52:06;99660.44;;;14.93;100.00
36600;BME280;35385;55.668;37.508;2023-05-23T01:53:08;99649.22;;;14.97;100.00
36600;BME280;35385;55.668;37.508;2023-05-23T01:54:09;99651.06;;;14.97;100.00
36600;BME280;35385;55.668;37.508;2023-05-23T01:55:09;99645.69;;;14.97;100.00
36600;BME280;35385;55.668;37.508;2023-05-23T01:56:11;99646.53;;;14.97;100.00
36600;BME280;35385;55.668;37.508;2023-05-23T01:57:12;99648.22;;;14.98;100.00
36600;BME280;35385;55.668;37.508;2023-05-23T01:58:13;99645.19;;;15.01;100.00
36600;BME280;35385;55.668;37.508;2023-05-23T01:59:13;99642.00;;;14.98;100.00
36600;BME280;35385;55.668;37.508;2023-05-23T02:00:14;99640.00;;;14.82;100.00
36600;BME280;35385;55.668;37.508;2023-05-23T02:01:14;99645.38;;;14.82;100.00
36600;BME280;35385;55.668;37.508;2023-05-23T02:02:15;99649.13;;;14.89;100.00
36600;BME280;35385;55.668;37.508;2023-05-23T02:03:15;99651.66;;;14.91;100.00
36600;BME280;35385;55.668;37.508;2023-05-23T02:04:16;99648.44;;;14.87;100.00
36600;BME280;35385;55.668;37.508;2023-05-23T02:05:16;99650.75;;;14.82;100.00
36600;BME280;35385;55.668;37.508;2023-05-23T02:06:16;99643.03;;;14.87;100.00
36600;BME280;35385;55.668;37.508;2023-05-23T02:07:17;99640.59;;;14.94;100.00
36600;BME280;35385;55.668;37.508;2023-05-23T02:08:22;99650.22;;;14.96;100.00
36600;BME280;35385;55.668;37.508;2023-05-23T02:09:22;99647.88;;;15.01;100.00
36600;BME280;35385;55.668;37.508;2023-05-23T02:10:22;99648.06;;;15.00;100.00
36600;BME280;35385;55.668;37.508;2023-05-23T02:11:23;99636.91;;;14.95;100.00
36600;BME280;35385;55.668;37.508;2023-05-23T02:12:23;99642.59;;;14.92;100.00
36600;BME280;35385;55.668;37.508;2023-05-23T02:13:23;99641.28;;;14.96;100.00
36600;BME280;35385;55.668;37.508;2023-05-23T02:14:24;99642.00;;;14.98;100.00
36600;BME280;35385;55.668;37.508;2023-05-23T02:15:25;99635.06;;;14.95;100.00
36600;BME280;35385;55.668;37.508;2023-05-23T02:16:25;99636.06;;;14.94;100.00
36600;BME280;35385;55.668;37.508;2023-05-23T02:17:26;99638.75;;;14.94;100.00
36600;BME280;35385;55.668;37.508;2023-05-23T02:18:26;99641.44;;;14.94;100.00
36600;BME280;35385;55.668;37.508;2023-05-23T02:19:48;99647.03;;;15.01;100.00
36600;BME280;35385;55.668;37.508;2023-05-23T02:20:48;99640.66;;;15.02;100.00
36600;BME280;35385;55.668;37.508;2023-05-23T02:21:49;99647.56;;;15.04;100.00
36600;BME280;35385;55.668;37.508;2023-05-23T02:22:50;99662.88;;;15.04;100.00
36600;BME280;35385;55.668;37.508;2023-05-23T02:23:50;99643.84;;;14.97;100.00
36600;BME280;35385;55.668;37.508;2023-05-23T02:24:50;99639.16;;;14.99;100.00
36600;BME280;35385;55.668;37.508;2023-05-23T02:25:51;99634.13;;;15.04;100.00
36600;BME280;35385;55.668;37.508;2023-05-23T02:26:52;99639.34;;;15.06;100.00
36600;BME280;35385;55.668;37.508;2023-05-23T02:27:52;99633.97;;;15.06;100.00
36600;BME280;35385;55.668;37.508;2023-05-23T02:28:52;99631.97;;;15.08;100.00
36600;BME280;35385;55.668;37.508;2023-05-23T02:29:53;99632.81;;;15.08;100.00
36600;BME280;35385;55.668;37.508;2023-05-23T02:30:53;99623.75;;;15.09;100.00
36600;BME280;35385;55.668;37.508;2023-05-23T02:31:54;99622.91;;;15.09;100.00
36600;BME280;35385;55.668;37.508;2023-05-23T02:32:54;99625.59;;;15.09;100.00
36600;BME280;35385;55.668;37.508;2023-05-23T02:33:56;99633.66;;;15.09;100.00
36600;BME280;35385;55.668;37.508;2023-05-23T02:34:56;99628.44;;;15.07;100.00
36600;BME280;35385;55.668;37.508;2023-05-23T02:35:58;99632.28;;;15.05;100.00
36600;BME280;35385;55.668;37.508;2023-05-23T02:36:59;99630.44;;;15.05;100.00
36600;BME280;35385;55.668;37.508;2023-05-23T02:37:59;99623.06;;;15.07;100.00
36600;BME280;35385;55.668;37.508;2023-05-23T02:38:59;99618.38;;;15.09;100.00
36600;BME280;35385;55.668;37.508;2023-05-23T02:40:00;99628.13;;;15.10;100.00
36600;BME280;35385;55.668;37.508;2023-05-23T02:41:00;99620.06;;;15.10;100.00
36600;BME280;35385;55.668;37.508;2023-05-23T02:42:01;99624.59;;;15.10;100.00
36600;BME280;35385;55.668;37.508;2023-05-23T02:43:01;99628.13;;;15.10;100.00
36600;BME280;35385;55.668;37.508;2023-05-23T02:44:02;99629.13;;;15.09;100.00
36600;BME280;35385;55.668;37.508;2023-05-23T02:45:02;99630.81;;;15.10;100.00
36600;BME280;35385;55.668;37.508;2023-05-23T02:46:03;99626.44;;;15.09;100.00
36600;BME280;35385;55.668;37.508;2023-05-23T02:47:04;99627.44;;;15.08;100.00
36600;BME280;35385;55.668;37.508;2023-05-23T02:48:04;99622.91;;;15.09;100.00
36600;BME280;35385;55.668;37.508;2023-05-23T02:49:05;99625.59;;;15.09;100.00
36600;BME280;35385;55.668;37.508;2023-05-23T02:50:05;99633.53;;;15.10;100.00
36600;BME280;35385;55.668;37.508;2023-05-23T02:51:06;99635.22;;;15.11;100.00
36600;BME280;35385;55.668;37.508;2023-05-23T02:52:06;99628.81;;;15.12;100.00
36600;BME280;35385;55.668;37.508;2023-05-23T02:53:07;99631.69;;;15.11;100.00
36600;BME280;35385;55.668;37.508;2023-05-23T02:54:07;99628.59;;;15.06;100.00
36600;BME280;35385;55.668;37.508;2023-05-23T02:55:08;99621.69;;;15.03;100.00
36600;BME280;35385;55.668;37.508;2023-05-23T02:56:08;99635.97;;;15.04;100.00
36600;BME280;35385;55.668;37.508;2023-05-23T02:57:08;99641.34;;;15.04;100.00
36600;BME280;35385;55.668;37.508;2023-05-23T02:58:09;99639.66;;;15.03;100.00
36600;BME280;35385;55.668;37.508;2023-05-23T02:59:10;99638.16;;;15.00;100.00
36600;BME280;35385;55.668;37.508;2023-05-23T03:00:11;99639.66;;;15.03;100.00
36600;BME280;35385;55.668;37.508;2023-05-23T03:01:12;99644.03;;;15.04;100.00
36600;BME280;35385;55.668;37.508;2023-05-23T03:02:12;99638.16;;;15.00;100.00
36600;BME280;35385;55.668;37.508;2023-05-23T03:03:13;99639.81;;;15.01;100.00
36600;BME280;35385;55.668;37.508;2023-05-23T03:04:13;99642.00;;;14.98;100.00
36600;BME280;35385;55.668;37.508;2023-05-23T03:05:13;99644.34;;;15.01;100.00
36600;BME280;35385;55.668;37.508;2023-05-23T03:06:14;99640.50;;;15.03;100.00
36600;BME280;35385;55.668;37.508;2023-05-23T03:07:15;99645.88;;;15.03;100.00
36600;BME280;35385;55.668;37.508;2023-05-23T03:08:16;99650.97;;;15.06;100.00
36600;BME280;35385;55.668;37.508;2023-05-23T03:09:16;99643.59;;;15.08;100.00
36600;BME280;35385;55.668;37.508;2023-05-23T03:10:17;99648.97;;;15.08;100.00
36600;BME280;35385;55.668;37.508;2023-05-23T03:11:17;99648.97;;;15.08;100.00
36600;BME280;35385;55.668;37.508;2023-05-23T03:12:17;99649.81;;;15.09;100.00
36600;BME280;35385;55.668;37.508;2023-05-23T03:13:18;99645.28;;;15.09;100.00
36600;BME280;35385;55.668;37.508;2023-05-23T03:14:18;99640.91;;;15.08;100.00
36600;BME280;35385;55.668;37.508;2023-05-23T03:15:18;99640.75;;;15.10;100.00
36600;BME280;35385;55.668;37.508;2023-05-23T03:16:19;99647.31;;;15.15;100.00
36600;BME280;35385;55.668;37.508;2023-05-23T03:17:20;99640.78;;;15.18;100.00
36600;BME280;35385;55.668;37.508;2023-05-23T03:18:21;99646.03;;;15.19;100.00
36600;BME280;35385;55.668;37.508;2023-05-23T03:19:21;99643.03;;;15.23;100.00
36600;BME280;35385;55.668;37.508;2023-05-23T03:20:22;99633.25;;;15.21;100.00
36600;BME280;35385;55.668;37.508;2023-05-23T03:21:22;99635.63;;;15.25;100.00
36600;BME280;35385;55.668;37.508;2023-05-23T03:22:22;99638.53;;;15.31;100.00
36600;BME280;35385;55.668;37.508;2023-05-23T03:23:23;99641.59;;;15.36;100.00
36600;BME280;35385;55.668;37.508;2023-05-23T03:24:23;99644.69;;;15.41;100.00
36600;BME280;35385;55.668;37.508;2023-05-23T03:25:23;99635.25;;;15.45;100.00
36600;BME280;35385;55.668;37.508;2023-05-23T03:26:25;99629.38;;;15.42;100.00
36600;BME280;35385;55.668;37.508;2023-05-23T03:27:25;99633.41;;;15.46;100.00
36600;BME280;35385;55.668;37.508;2023-05-23T03:28:25;99641.50;;;15.46;100.00
36600;BME280;35385;55.668;37.508;2023-05-23T03:29:26;99639.31;;;15.41;100.00
36600;BME280;35385;55.668;37.508;2023-05-23T03:30:26;99643.50;;;15.44;100.00
36600;BME280;35385;55.668;37.508;2023-05-23T03:31:26;99635.66;;;15.50;100.00
36600;BME280;35385;55.668;37.508;2023-05-23T03:32:27;99634.81;;;15.50;100.00
36600;BME280;35385;55.668;37.508;2023-05-23T03:33:27;99643.41;;;15.53;100.00
36600;BME280;35385;55.668;37.508;2023-05-23T03:34:28;99636.91;;;15.56;100.00
36600;BME280;35385;55.668;37.508;2023-05-23T03:35:29;99644.31;;;15.62;100.00
36600;BME280;35385;55.668;37.508;2023-05-23T03:36:29;99628.88;;;15.64;100.00
36600;BME280;35385;55.668;37.508;2023-05-23T03:37:32;99631.56;;;15.64;100.00
36600;BME280;35385;55.668;37.508;2023-05-23T03:38:32;99630.25;;;15.68;100.00
36600;BME280;35385;55.668;37.508;2023-05-23T03:39:33;99629.25;;;15.69;100.00
36600;BME280;35385;55.668;37.508;2023-05-23T03:40:33;99622.03;;;15.78;100.00
36600;BME280;35385;55.668;37.508;2023-05-23T03:41:33;99626.63;;;15.85;100.00
36600;BME280;35385;55.668;37.508;2023-05-23T03:42:35;99628.97;;;15.88;100.00
36600;BME280;35385;55.668;37.508;2023-05-23T03:43:35;99627.28;;;15.87;100.00
36600;BME280;35385;55.668;37.508;2023-05-23T03:44:35;99624.44;;;15.89;100.00
36600;BME280;35385;55.668;37.508;2023-05-23T03:45:36;99628.50;;;15.93;100.00
36600;BME280;35385;55.668;37.508;2023-05-23T03:46:36;99636.78;;;16.00;100.00
36600;BME280;35385;55.668;37.508;2023-05-23T03:47:37;99639.13;;;16.03;100.00
36600;BME280;35385;55.668;37.508;2023-05-23T03:48:37;99634.59;;;16.03;100.00
36600;BME280;35385;55.668;37.508;2023-05-23T03:49:37;99626.88;;;16.08;100.00
36600;BME280;35385;55.668;37.508;2023-05-23T03:50:38;99630.78;;;16.14;100.00
36600;BME280;35385;55.668;37.508;2023-05-23T03:51:38;99628.09;;;16.14;100.00
36600;BME280;35385;55.668;37.508;2023-05-23T03:52:39;99630.44;;;16.17;100.00
36600;BME280;35385;55.668;37.508;2023-05-23T03:53:39;99619.03;;;16.23;100.00
36600;BME280;35385;55.668;37.508;2023-05-23T03:54:39;99620.56;;;16.25;100.00
36600;BME280;35385;55.668;37.508;2023-05-23T03:55:40;99624.94;;;16.26;100.00
36600;BME280;35385;55.668;37.508;2023-05-23T03:56:41;99619.38;;;16.28;100.00
36600;BME280;35385;55.668;37.508;2023-05-23T03:57:41;99619.03;;;16.23;100.00
36600;BME280;35385;55.668;37.508;2023-05-23T03:58:41;99622.72;;;16.22;100.00
36600;BME280;35385;55.668;37.508;2023-05-23T03:59:42;99626.06;;;16.16;100.00
36600;BME280;35385;55.668;37.508;2023-05-23T04:00:42;99627.25;;;16.13;100.00
36600;BME280;35385;55.668;37.508;2023-05-23T04:01:43;99617.66;;;16.19;100.00
36600;BME280;35385;55.668;37.508;2023-05-23T04:02:43;99616.81;;;16.18;100.00
36600;BME280;35385;55.668;37.508;2023-05-23T04:03:45;99620.34;;;16.19;100.00
36600;BME280;35385;55.668;37.508;2023-05-23T04:04:45;99619.66;;;16.17;100.00
36600;BME280;35385;55.668;37.508;2023-05-23T04:05:46;99621.72;;;16.15;100.00
36600;BME280;35385;55.668;37.508;2023-05-23T04:06:46;99618.81;;;16.16;100.00
36600;BME280;35385;55.668;37.508;2023-05-23T04:07:47;99625.41;;;16.14;100.00
36600;BME280;35385;55.668;37.508;2023-05-23T04:08:48;99609.88;;;16.08;100.00
36600;BME280;35385;55.668;37.508;2023-05-23T04:09:48;99620.34;;;16.11;100.00
36600;BME280;35385;55.668;37.508;2023-05-23T04:10:48;99616.63;;;16.12;100.00
36600;BME280;35385;55.668;37.508;2023-05-23T04:11:50;99623.03;;;16.11;100.00
36600;BME280;35385;55.668;37.508;2023-05-23T04:12:50;99615.91;;;16.02;100.00
36600;BME280;35385;55.668;37.508;2023-05-23T04:13:51;99626.03;;;16.00;100.00
36600;BME280;35385;55.668;37.508;2023-05-23T04:14:52;99621.47;;;16.00;100.00
36600;BME280;35385;55.668;37.508;2023-05-23T04:15:53;99627.66;;;15.93;100.00
36600;BME280;35385;55.668;37.508;2023-05-23T04:16:55;99628.34;;;15.95;100.00
36600;BME280;35385;55.668;37.508;2023-05-23T04:17:55;99627.66;;;15.93;100.00
36600;BME280;35385;55.668;37.508;2023-05-23T04:18:55;99625.81;;;15.93;100.00
36600;BME280;35385;55.668;37.508;2023-05-23T04:19:57;99628.50;;;15.93;100.00
36600;BME280;35385;55.668;37.508;2023-05-23T04:20:58;99640.81;;;15.96;100.00
36600;BME280;35385;55.668;37.508;2023-05-23T04:21:58;99637.97;;;15.97;100.00
36600;BME280;35385;55.668;37.508;2023-05-23T04:22:59;99630.03;;;15.96;100.00
36600;BME280;35385;55.668;37.508;2023-05-23T04:24:00;99628.72;;;16.00;100.00
36600;BME280;35385;55.668;37.508;2023-05-23T04:25:00;99639.34;;;16.01;100.00
36600;BME280;35385;55.668;37.508;2023-05-23T04:26:00;99633.94;;;16.01;100.00
36600;BME280;35385;55.668;37.508;2023-05-23T04:27:01;99633.44;;;16.06;100.00
36600;BME280;35385;55.668;37.508;2023-05-23T04:28:01;99629.06;;;16.05;100.00
36600;BME280;35385;55.668;37.508;2023-05-23T04:29:05;99632.28;;;16.08;100.00
36600;BME280;35385;55.668;37.508;2023-05-23T04:30:05;99627.72;;;16.09;100.00
36600;BME280;35385;55.668;37.508;2023-05-23T04:31:07;99628.56;;;16.09;100.00
36600;BME280;35385;55.668;37.508;2023-05-23T04:32:07;99627.09;;;16.15;100.00
36600;BME280;35385;55.668;37.508;2023-05-23T04:33:08;99619.16;;;16.13;100.00
36600;BME280;35385;55.668;37.508;2023-05-23T04:34:09;99627.09;;;16.23;100.00
36600;BME280;35385;55.668;37.508;2023-05-23T04:35:09;99622.94;;;16.29;100.00
36600;BME280;35385;55.668;37.508;2023-05-23T04:36:10;99626.78;;;16.34;100.00
36600;BME280;35385;55.668;37.508;2023-05-23T04:37:10;99619.72;;;16.33;100.00
36600;BME280;35385;55.668;37.508;2023-05-23T04:38:10;99624.09;;;16.34;100.00
36600;BME280;35385;55.668;37.508;2023-05-23T04:39:12;99623.28;;;16.42;100.00
36600;BME280;35385;55.668;37.508;2023-05-23T04:40:13;99628.16;;;16.46;100.00
36600;BME280;35385;55.668;37.508;2023-05-23T04:41:13;99620.09;;;16.46;100.00
36600;BME280;35385;55.668;37.508;2023-05-23T04:42:15;99624.50;;;16.55;100.00
36600;BME280;35385;55.668;37.508;2023-05-23T04:43:16;99626.69;;;16.60;100.00
36600;BME280;35385;55.668;37.508;2023-05-23T04:44:19;99618.25;;;16.55;100.00
36600;BME280;35385;55.668;37.508;2023-05-23T04:45:19;99630.22;;;16.52;100.00
36600;BME280;35385;55.668;37.508;2023-05-23T04:46:19;99627.19;;;16.55;100.00
36600;BME280;35385;55.668;37.508;2023-05-23T04:47:26;99624.66;;;16.62;100.00
36600;BME280;35385;55.668;37.508;2023-05-23T04:48:27;99629.44;;;16.76;100.00
36600;BME280;35385;55.668;37.508;2023-05-23T04:49:28;99623.19;;;16.76;100.00
36600;BME280;35385;55.668;37.508;2023-05-23T04:50:28;99637.53;;;16.76;100.00
36600;BME280;35385;55.668;37.508;2023-05-23T04:51:32;99627.59;;;16.77;100.00
36600;BME280;35385;55.668;37.508;2023-05-23T04:52:33;99633.81;;;16.77;100.00
36600;BME280;35385;55.668;37.508;2023-05-23T04:53:33;99629.63;;;16.83;100.00
36600;BME280;35385;55.668;37.508;2023-05-23T04:54:34;99630.31;;;16.85;100.00
36600;BME280;35385;55.668;37.508;2023-05-23T04:55:35;99621.69;;;16.89;100.00
36600;BME280;35385;55.668;37.508;2023-05-23T04:56:35;99627.28;;;16.88;100.00
36600;BME280;35385;55.668;37.508;2023-05-23T04:57:36;99627.59;;;16.85;100.00
36600;BME280;35385;55.668;37.508;2023-05-23T04:58:36;99631.63;;;16.89;100.00
36600;BME280;35385;55.668;37.508;2023-05-23T04:59:37;99620.19;;;16.87;100.00
36600;BME280;35385;55.668;37.508;2023-05-23T05:00:37;99616.13;;;16.83;100.00
36600;BME280;35385;55.668;37.508;2023-05-23T05:01:38;99626.25;;;16.89;100.00
36600;BME280;35385;55.668;37.508;2023-05-23T05:02:39;99629.13;;;16.95;100.00
36600;BME280;35385;55.668;37.508;2023-05-23T05:03:40;99620.84;;;17.05;100.00
36600;BME280;35385;55.668;37.508;2023-05-23T05:04:40;99630.31;;;17.09;100.00
36600;BME280;35385;55.668;37.508;2023-05-23T05:05:41;99621.19;;;17.18;100.00
36600;BME280;35385;55.668;37.508;2023-05-23T05:06:45;99617.84;;;17.16;100.00
36600;BME280;35385;55.668;37.508;2023-05-23T05:07:47;99622.03;;;17.19;100.00
36600;BME280;35385;55.668;37.508;2023-05-23T05:08:47;99625.91;;;17.24;100.00
36600;BME280;35385;55.668;37.508;2023-05-23T05:09:48;99621.53;;;17.23;100.00
36600;BME280;35385;55.668;37.508;2023-05-23T05:10:48;99622.19;;;17.25;100.00
36600;BME280;35385;55.668;37.508;2023-05-23T05:11:48;99630.28;;;17.33;100.00
36600;BME280;35385;55.668;37.508;2023-05-23T05:12:49;99624.53;;;17.45;100.00
36600;BME280;35385;55.668;37.508;2023-05-23T05:13:49;99628.91;;;17.46;100.00
36600;BME280;35385;55.668;37.508;2023-05-23T05:14:49;99633.81;;;17.50;100.00
36600;BME280;35385;55.668;37.508;2023-05-23T05:15:50;99638.91;;;17.45;100.00
36600;BME280;35385;55.668;37.508;2023-05-23T05:16:52;99645.13;;;17.54;100.00
36600;BME280;35385;55.668;37.508;2023-05-23T05:17:53;99646.47;;;17.58;100.00
36600;BME280;35385;55.668;37.508;2023-05-23T05:18:54;99649.50;;;17.55;100.00